Time;durP1;ratioP1;P1;durP2;ratioP2;P2;SDS_P1;SDS_P2;PMS_P1;PMS_P2;Temp;Humidity;BMP_temperature;BMP_pressure;BME280_temperature;BME280_humidity;BME280_pressure;Samples;Min_cycle;Max_cycle;Signal;HPM_P1;HPM_P2
2023/04/23 00:01:05;;;;;;;40.75;23.23;;;8.30;99.90;;;;;;5025115;28;20048;-61
2023/04/23 00:03:33;;;;;;;42.72;25.83;;;8.30;99.90;;;;;;5020943;28;20466;-61
2023/04/23 00:06:03;;;;;;;35.42;22.70;;;8.30;99.90;;;;;;5004807;28;20060;-61
2023/04/23 00:08:30;;;;;;;40.80;25.20;;;8.40;99.90;;;;;;5020882;28;20057;-61
2023/04/23 00:10:56;;;;;;;42.50;26.73;;;8.30;99.90;;;;;;5002656;28;20049;-61
2023/04/23 00:13:22;;;;;;;46.30;28.10;;;8.30;99.90;;;;;;5023063;28;20511;-62
2023/04/23 00:15:48;;;;;;;53.08;25.52;;;8.30;99.90;;;;;;5020656;28;20041;-62
2023/04/23 00:18:15;;;;;;;99.75;25.55;;;8.30;99.90;;;;;;5008045;28;20075;-62
2023/04/23 00:20:42;;;;;;;168.40;25.70;;;8.30;99.90;;;;;;5025452;28;20053;-62
2023/04/23 00:23:08;;;;;;;132.57;27.42;;;8.20;99.90;;;;;;4994993;28;20108;-62
2023/04/23 00:25:33;;;;;;;179.57;28.20;;;8.20;99.90;;;;;;5028648;28;20041;-62
2023/04/23 00:27:59;;;;;;;66.68;24.08;;;8.10;99.90;;;;;;5022730;28;20048;-62
2023/04/23 00:30:25;;;;;;;64.85;23.20;;;8.10;99.90;;;;;;5027667;28;20152;-62
2023/04/23 00:32:51;;;;;;;49.70;22.23;;;8.10;99.90;;;;;;5028607;28;20385;-62
2023/04/23 00:35:17;;;;;;;47.15;24.58;;;8.10;99.90;;;;;;5029912;28;20100;-62
2023/04/23 00:37:43;;;;;;;54.25;23.67;;;8.10;99.90;;;;;;5023794;28;20601;-62
2023/04/23 00:40:10;;;;;;;65.18;24.17;;;8.00;99.90;;;;;;5006783;28;20042;-62
2023/04/23 00:42:37;;;;;;;46.97;23.38;;;8.00;99.90;;;;;;5026677;28;20037;-61
2023/04/23 00:45:05;;;;;;;45.80;24.80;;;8.10;99.90;;;;;;5023705;28;20120;-61
2023/04/23 00:47:32;;;;;;;71.72;28.25;;;8.10;99.90;;;;;;5025409;28;20040;-62
2023/04/23 00:49:59;;;;;;;51.28;25.95;;;8.10;99.90;;;;;;5028360;28;20049;-62
2023/04/23 00:52:25;;;;;;;42.30;25.33;;;8.10;99.90;;;;;;5036013;28;20046;-62
2023/04/23 00:54:50;;;;;;;45.13;26.40;;;8.10;99.90;;;;;;5011906;28;20068;-62
2023/04/23 00:57:17;;;;;;;44.25;25.65;;;8.10;99.90;;;;;;5027633;28;20121;-62
2023/04/23 00:59:43;;;;;;;54.53;28.50;;;8.10;99.90;;;;;;5025093;28;20400;-61
2023/04/23 01:02:09;;;;;;;43.42;27.13;;;8.20;99.90;;;;;;5023050;28;20050;-62
2023/04/23 01:04:37;;;;;;;44.22;26.15;;;8.20;99.90;;;;;;5022810;28;20044;-62
2023/04/23 01:07:02;;;;;;;41.45;25.98;;;8.20;99.90;;;;;;5027413;28;20041;-62
2023/04/23 01:09:28;;;;;;;47.85;29.02;;;8.20;99.90;;;;;;5029108;28;20539;-62
2023/04/23 01:11:56;;;;;;;41.85;26.58;;;8.10;99.90;;;;;;5012418;28;20172;-62
2023/04/23 01:14:22;;;;;;;47.08;29.73;;;8.10;99.90;;;;;;5026694;28;20152;-62
2023/04/23 01:16:48;;;;;;;42.60;26.45;;;8.10;99.90;;;;;;5015914;28;20045;-62
2023/04/23 01:19:14;;;;;;;47.40;27.20;;;8.10;99.90;;;;;;5022180;28;20117;-62
2023/04/23 01:21:41;;;;;;;50.90;29.02;;;8.10;99.90;;;;;;5030718;28;20044;-62
2023/04/23 01:24:08;;;;;;;42.00;27.40;;;8.10;99.90;;;;;;5028611;28;20034;-62
2023/04/23 01:26:34;;;;;;;42.90;26.40;;;8.10;99.90;;;;;;5018906;28;20038;-62
2023/04/23 01:29:00;;;;;;;45.80;27.58;;;8.10;99.90;;;;;;5017530;28;20044;-62
2023/04/23 01:31:29;;;;;;;47.75;28.98;;;8.10;99.90;;;;;;5022091;28;20129;-62
2023/04/23 01:33:56;;;;;;;43.15;25.88;;;8.10;99.90;;;;;;5017901;28;20093;-62
2023/04/23 01:36:22;;;;;;;42.72;26.35;;;8.10;99.90;;;;;;5013324;28;20045;-61
2023/04/23 01:38:48;;;;;;;43.00;26.65;;;8.00;99.90;;;;;;5018084;28;20459;-62
2023/04/23 01:41:14;;;;;;;54.45;30.23;;;8.00;99.90;;;;;;5029369;28;20042;-62
2023/04/23 01:43:44;;;;;;;47.35;27.65;;;8.00;99.90;;;;;;5026753;28;20029;-61
2023/04/23 01:46:10;;;;;;;43.03;26.20;;;8.00;99.90;;;;;;5007754;28;20048;-61
2023/04/23 01:48:36;;;;;;;48.00;30.17;;;8.00;99.90;;;;;;5022202;28;20041;-62
2023/04/23 01:51:03;;;;;;;50.13;30.48;;;7.90;99.90;;;;;;5024509;28;24055;-61
2023/04/23 01:53:28;;;;;;;52.45;31.20;;;8.00;99.90;;;;;;5003630;28;20320;-62
2023/04/23 01:55:55;;;;;;;51.50;29.90;;;8.00;99.90;;;;;;5006209;28;20081;-62
2023/04/23 01:58:22;;;;;;;49.22;29.92;;;8.00;99.90;;;;;;5023944;28;20045;-62
2023/04/23 02:00:51;;;;;;;56.85;31.75;;;7.90;99.90;;;;;;5027226;28;20086;-62
2023/04/23 02:03:17;;;;;;;51.50;32.33;;;7.90;99.90;;;;;;5008170;28;20485;-62
2023/04/23 02:05:43;;;;;;;49.17;29.88;;;7.90;99.90;;;;;;5023433;28;20451;-62
2023/04/23 02:08:09;;;;;;;51.22;30.70;;;7.90;99.90;;;;;;5024368;28;20042;-62
2023/04/23 02:10:35;;;;;;;58.08;33.42;;;7.90;99.90;;;;;;5025510;28;20575;-62
2023/04/23 02:13:02;;;;;;;55.63;33.38;;;7.90;99.90;;;;;;5024727;28;20045;-62
2023/04/23 02:15:28;;;;;;;69.25;36.05;;;7.90;99.90;;;;;;5009531;28;20045;-62
2023/04/23 02:17:54;;;;;;;74.97;39.63;;;7.90;99.90;;;;;;5026764;28;20107;-61
2023/04/23 02:20:20;;;;;;;86.75;42.03;;;7.90;99.90;;;;;;5008142;28;20512;-62
2023/04/23 02:22:47;;;;;;;75.47;39.47;;;7.90;99.90;;;;;;5018006;28;20396;-62
2023/04/23 02:25:15;;;;;;;87.38;41.28;;;8.00;99.90;;;;;;5024844;28;20040;-62
2023/04/23 02:27:41;;;;;;;137.07;45.58;;;8.00;99.90;;;;;;5024639;28;20035;-61
2023/04/23 02:30:08;;;;;;;172.93;45.63;;;8.00;99.90;;;;;;5027881;28;20037;-62
2023/04/23 02:32:36;;;;;;;158.90;45.60;;;8.00;99.90;;;;;;5025666;28;20222;-61
2023/04/23 02:35:02;;;;;;;128.45;46.22;;;8.00;99.90;;;;;;5028680;28;20041;-62
2023/04/23 02:37:28;;;;;;;129.15;47.67;;;8.00;99.90;;;;;;5022309;28;20562;-62
2023/04/23 02:39:53;;;;;;;98.65;45.13;;;8.00;99.90;;;;;;5001463;28;20038;-62
2023/04/23 02:42:19;;;;;;;132.65;47.30;;;8.00;99.90;;;;;;5024003;28;20053;-62
2023/04/23 02:44:45;;;;;;;92.63;46.72;;;8.00;99.90;;;;;;5021861;28;20404;-62
2023/04/23 02:47:10;;;;;;;125.13;49.20;;;8.00;99.90;;;;;;5016963;28;20245;-62
2023/04/23 02:49:36;;;;;;;114.90;48.95;;;8.10;99.90;;;;;;5006283;28;20045;-62
2023/04/23 02:52:02;;;;;;;128.55;51.95;;;8.10;99.90;;;;;;5023204;28;20213;-61
2023/04/23 02:54:28;;;;;;;139.23;53.20;;;8.10;99.90;;;;;;5020728;28;20316;-62
2023/04/23 02:56:53;;;;;;;122.70;52.53;;;8.10;99.90;;;;;;5019153;28;20304;-62
2023/04/23 02:59:19;;;;;;;139.52;55.08;;;8.10;99.90;;;;;;5023617;28;20374;-62
2023/04/23 03:01:45;;;;;;;116.97;55.05;;;8.10;99.90;;;;;;5022866;28;20046;-62
2023/04/23 03:04:11;;;;;;;116.47;56.85;;;8.10;99.90;;;;;;5015393;28;20392;-62
2023/04/23 03:06:37;;;;;;;126.82;60.92;;;8.50;99.90;;;;;;5020347;28;20053;-62
2023/04/23 03:09:03;;;;;;;132.93;60.58;;;8.20;99.90;;;;;;5022974;28;20045;-62
2023/04/23 03:11:29;;;;;;;131.52;61.22;;;8.20;99.90;;;;;;5040173;28;20080;-62
2023/04/23 03:13:55;;;;;;;127.25;60.83;;;8.20;99.90;;;;;;5019969;28;20045;-62
2023/04/23 03:16:20;;;;;;;132.18;61.17;;;8.20;99.90;;;;;;5027170;28;20057;-62
2023/04/23 03:18:46;;;;;;;140.30;64.18;;;8.20;99.90;;;;;;5021266;28;20068;-62
2023/04/23 03:21:12;;;;;;;142.70;65.85;;;8.20;99.90;;;;;;5020265;28;20061;-62
2023/04/23 03:23:38;;;;;;;120.82;61.30;;;8.20;99.90;;;;;;5025141;28;20044;-61
2023/04/23 03:26:04;;;;;;;147.13;66.43;;;8.20;99.90;;;;;;5023043;28;20042;-62
2023/04/23 03:28:30;;;;;;;112.45;57.40;;;8.20;99.90;;;;;;5022394;28;20044;-62
2023/04/23 03:30:56;;;;;;;134.10;63.20;;;8.20;99.90;;;;;;5020679;28;20500;-62
2023/04/23 03:33:21;;;;;;;129.80;64.68;;;8.20;99.90;;;;;;5028151;28;20317;-62
2023/04/23 03:35:47;;;;;;;140.90;65.35;;;8.30;99.90;;;;;;5021029;28;20515;-62
2023/04/23 03:38:13;;;;;;;132.18;63.95;;;8.30;99.90;;;;;;5008290;28;20085;-62
2023/04/23 03:40:39;;;;;;;132.07;66.85;;;8.30;99.90;;;;;;5007894;28;20408;-62
2023/04/23 03:43:04;;;;;;;114.38;58.80;;;8.30;99.90;;;;;;4999048;28;20034;-62
2023/04/23 03:45:31;;;;;;;120.78;62.88;;;8.30;99.90;;;;;;4999602;28;20048;-62
2023/04/23 03:47:56;;;;;;;127.88;62.97;;;8.30;99.90;;;;;;5010254;28;20546;-62
2023/04/23 03:50:22;;;;;;;147.43;67.72;;;8.30;99.90;;;;;;5014463;28;20045;-61
2023/04/23 03:52:48;;;;;;;143.90;68.05;;;8.30;99.90;;;;;;5024192;28;20034;-62
2023/04/23 03:55:14;;;;;;;140.52;65.78;;;8.30;99.90;;;;;;5017024;28;20602;-61
2023/04/23 03:57:40;;;;;;;136.75;65.28;;;8.30;99.90;;;;;;5027645;28;20771;-62
2023/04/23 04:00:12;;;;;;;142.75;67.13;;;8.40;99.90;;;;;;5024116;28;20120;-62
2023/04/23 04:02:38;;;;;;;129.65;63.90;;;8.40;99.90;;;;;;5026642;28;20056;-61
2023/04/23 04:05:05;;;;;;;116.70;60.30;;;8.40;99.90;;;;;;5009636;28;20052;-61
2023/04/23 04:07:32;;;;;;;119.18;59.75;;;8.40;99.90;;;;;;5008066;28;20087;-61
2023/04/23 04:09:58;;;;;;;122.97;63.67;;;8.40;99.90;;;;;;5026535;28;20498;-61
2023/04/23 04:12:23;;;;;;;130.68;63.58;;;8.40;99.90;;;;;;5026974;28;20053;-62
2023/04/23 04:14:49;;;;;;;133.32;66.45;;;8.50;99.90;;;;;;5028666;28;20037;-61
2023/04/23 04:17:15;;;;;;;106.03;55.55;;;8.50;99.90;;;;;;5029462;28;20072;-61
2023/04/23 04:19:41;;;;;;;118.80;62.58;;;8.50;99.90;;;;;;5026014;28;20183;-62
2023/04/23 04:22:08;;;;;;;119.13;60.88;;;8.50;99.90;;;;;;5021648;28;20034;-61
2023/04/23 04:24:34;;;;;;;113.88;61.95;;;8.40;99.90;;;;;;5027192;28;20041;-62
2023/04/23 04:27:01;;;;;;;129.48;63.20;;;8.50;99.90;;;;;;5010875;28;20519;-62
2023/04/23 04:29:27;;;;;;;121.43;64.05;;;8.50;99.90;;;;;;5027269;28;20038;-61
2023/04/23 04:31:54;;;;;;;111.75;57.95;;;8.50;99.90;;;;;;5028348;28;20559;-62
2023/04/23 04:34:20;;;;;;;129.15;64.30;;;8.50;99.90;;;;;;5025994;28;20045;-62
2023/04/23 04:36:46;;;;;;;106.72;56.85;;;8.50;99.90;;;;;;5025093;28;20033;-62
2023/04/23 04:39:13;;;;;;;115.78;62.97;;;8.50;99.90;;;;;;5009165;28;20049;-61
2023/04/23 04:41:40;;;;;;;120.18;60.95;;;8.40;99.90;;;;;;5031153;28;20044;-61
2023/04/23 04:44:09;;;;;;;116.85;61.42;;;8.50;99.90;;;;;;5026239;28;20080;-61
2023/04/23 04:46:39;;;;;;;107.00;55.60;;;8.50;99.90;;;;;;5026803;28;20569;-61
2023/04/23 04:49:09;;;;;;;111.72;56.72;;;8.50;99.90;;;;;;5028910;28;20389;-61
2023/04/23 04:51:39;;;;;;;109.80;57.60;;;8.40;99.90;;;;;;5027435;28;20178;-61
2023/04/23 04:54:06;;;;;;;113.85;58.55;;;8.50;99.90;;;;;;5022905;28;20158;-61
2023/04/23 04:56:33;;;;;;;117.13;59.65;;;8.50;99.90;;;;;;5010352;28;20037;-61
2023/04/23 04:58:59;;;;;;;110.30;55.70;;;8.50;99.90;;;;;;5028110;28;20073;-61
2023/04/23 05:01:27;;;;;;;111.43;58.38;;;8.50;99.90;;;;;;5027105;28;20532;-61
2023/04/23 05:03:54;;;;;;;115.05;58.63;;;8.50;99.90;;;;;;5027397;28;20401;-61
2023/04/23 05:06:20;;;;;;;122.95;60.97;;;8.50;99.90;;;;;;5025287;28;20077;-61
2023/04/23 05:08:48;;;;;;;109.25;56.60;;;8.60;99.90;;;;;;5025779;28;20044;-61
2023/04/23 05:11:16;;;;;;;121.90;60.53;;;8.60;99.90;;;;;;5006075;28;20597;-61
2023/04/23 05:13:44;;;;;;;116.13;59.92;;;8.60;99.90;;;;;;5028217;28;20559;-61
2023/04/23 05:16:10;;;;;;;107.57;57.28;;;8.60;99.90;;;;;;5025654;28;20515;-61
2023/04/23 05:18:37;;;;;;;117.53;57.20;;;8.70;99.90;;;;;;5024171;28;20352;-61
2023/04/23 05:21:03;;;;;;;114.97;56.92;;;8.70;99.90;;;;;;5024608;28;20040;-61
2023/04/23 05:23:29;;;;;;;111.63;56.67;;;8.70;99.90;;;;;;5028811;28;20041;-62
2023/04/23 05:25:55;;;;;;;117.07;59.97;;;8.70;99.90;;;;;;5026424;28;20431;-61
2023/04/23 05:28:21;;;;;;;112.82;56.97;;;8.70;99.90;;;;;;5024448;28;20488;-61
2023/04/23 05:30:48;;;;;;;110.55;57.10;;;8.70;99.90;;;;;;5022595;28;20080;-61
2023/04/23 05:33:14;;;;;;;89.25;47.53;;;8.80;99.90;;;;;;5025507;28;20049;-61
2023/04/23 05:35:43;;;;;;;101.13;55.50;;;8.80;99.90;;;;;;5014963;28;20041;-61
2023/04/23 05:38:09;;;;;;;109.45;57.90;;;8.80;99.90;;;;;;5026574;28;20057;-62
2023/04/23 05:40:35;;;;;;;105.80;56.05;;;8.90;99.90;;;;;;5023097;28;20103;-61
2023/04/23 05:43:01;;;;;;;96.07;51.15;;;8.90;99.90;;;;;;5022565;28;20061;-61
2023/04/23 05:45:26;;;;;;;96.30;52.50;;;8.90;99.90;;;;;;5017497;28;20133;-62
2023/04/23 05:47:52;;;;;;;96.20;53.00;;;9.00;99.90;;;;;;5026023;28;20128;-61
2023/04/23 05:50:19;;;;;;;97.82;53.88;;;9.00;99.90;;;;;;5007849;28;20546;-61
2023/04/23 05:52:45;;;;;;;80.82;47.78;;;9.10;99.90;;;;;;5028526;28;20048;-61
2023/04/23 05:55:10;;;;;;;89.45;52.03;;;9.10;99.90;;;;;;5026120;28;20037;-61
2023/04/23 05:57:37;;;;;;;91.35;49.58;;;9.10;99.90;;;;;;5037590;28;20048;-61
2023/04/23 06:00:13;;;;;;;84.70;50.00;;;9.20;99.90;;;;;;5024513;28;20060;-61
2023/04/23 06:02:40;;;;;;;82.25;47.63;;;9.20;99.90;;;;;;4998521;28;20049;-61
2023/04/23 06:05:06;;;;;;;69.43;43.65;;;9.20;99.90;;;;;;5019732;28;20440;-62
2023/04/23 06:07:32;;;;;;;75.70;43.38;;;9.20;99.90;;;;;;5022530;28;20045;-61
2023/04/23 06:09:58;;;;;;;72.90;44.95;;;9.20;99.90;;;;;;5024837;28;20488;-61
2023/04/23 06:12:24;;;;;;;72.85;44.17;;;9.20;99.90;;;;;;5022213;28;20041;-62
2023/04/23 06:14:52;;;;;;;72.20;43.75;;;9.20;99.90;;;;;;5023316;28;20055;-61
2023/04/23 06:17:18;;;;;;;67.70;42.28;;;9.30;99.90;;;;;;5022186;28;20053;-61
2023/04/23 06:19:43;;;;;;;69.18;43.28;;;9.40;99.90;;;;;;5021485;28;20064;-62
2023/04/23 06:22:09;;;;;;;64.75;41.88;;;9.50;99.90;;;;;;5021698;28;20042;-61
2023/04/23 06:24:35;;;;;;;69.22;43.35;;;9.60;99.90;;;;;;5030252;28;20076;-62
2023/04/23 06:27:01;;;;;;;64.07;42.63;;;9.70;99.90;;;;;;5021221;28;20087;-62
2023/04/23 06:29:27;;;;;;;70.13;44.45;;;9.80;99.90;;;;;;5023081;28;20383;-62
2023/04/23 06:32:00;;;;;;;67.53;42.95;;;9.80;99.90;;;;;;5007116;28;20451;-61
2023/04/23 06:34:26;;;;;;;69.07;42.72;;;9.90;99.90;;;;;;5021234;28;20433;-64
2023/04/23 06:36:51;;;;;;;67.25;42.53;;;10.00;99.90;;;;;;5024183;28;20124;-62
2023/04/23 06:39:17;;;;;;;68.53;43.47;;;10.10;99.90;;;;;;5024776;28;20041;-62
2023/04/23 06:41:43;;;;;;;67.80;42.60;;;10.10;99.90;;;;;;5005111;28;20034;-62
2023/04/23 06:44:09;;;;;;;69.30;43.17;;;10.10;99.90;;;;;;5005374;28;20048;-62
2023/04/23 06:46:35;;;;;;;68.40;44.00;;;10.10;99.90;;;;;;5018151;28;20096;-62
2023/04/23 06:49:00;;;;;;;67.10;42.92;;;10.20;99.90;;;;;;5007507;28;20401;-64
2023/04/23 06:51:26;;;;;;;66.60;44.58;;;10.20;99.90;;;;;;5005954;28;20042;-62
2023/04/23 06:53:52;;;;;;;69.32;42.35;;;10.30;99.90;;;;;;5015339;28;20542;-61
2023/04/23 06:56:19;;;;;;;66.15;43.85;;;10.30;99.90;;;;;;5000496;28;20092;-61
2023/04/23 06:58:44;;;;;;;67.55;42.58;;;10.30;99.90;;;;;;5025802;28;20045;-63
2023/04/23 07:01:10;;;;;;;65.95;43.75;;;10.40;99.90;;;;;;5023967;28;20479;-62
2023/04/23 07:03:36;;;;;;;68.22;43.83;;;10.40;99.90;;;;;;5008096;28;20045;-63
2023/04/23 07:06:02;;;;;;;65.97;43.75;;;10.50;99.90;;;;;;5014921;28;20481;-64
2023/04/23 07:08:28;;;;;;;60.35;40.15;;;10.50;99.90;;;;;;4996448;28;20049;-64
2023/04/23 07:10:54;;;;;;;66.20;43.25;;;10.60;99.90;;;;;;5021477;28;20041;-64
2023/04/23 07:13:20;;;;;;;63.28;41.28;;;10.70;99.90;;;;;;5016019;28;20053;-62
2023/04/23 07:15:46;;;;;;;68.07;43.40;;;10.80;99.90;;;;;;5027217;28;20136;-61
2023/04/23 07:18:12;;;;;;;65.50;43.08;;;10.80;99.90;;;;;;4993842;28;20046;-63
2023/04/23 07:20:38;;;;;;;63.72;41.83;;;10.90;99.90;;;;;;5021990;28;20144;-63
2023/04/23 07:23:04;;;;;;;61.17;41.50;;;11.00;99.90;;;;;;5042445;28;20116;-63
2023/04/23 07:25:30;;;;;;;62.70;41.97;;;11.00;99.90;;;;;;5024945;28;20123;-62
2023/04/23 07:27:56;;;;;;;65.30;41.55;;;11.00;99.90;;;;;;5023224;28;20480;-62
2023/04/23 07:30:23;;;;;;;59.80;40.33;;;11.10;99.90;;;;;;5024432;28;20044;-61
2023/04/23 07:32:55;;;;;;;64.30;41.10;;;11.20;99.90;;;;;;5026658;28;20045;-62
2023/04/23 07:35:21;;;;;;;58.80;40.25;;;11.40;99.90;;;;;;5022190;28;20073;-64
2023/04/23 07:37:52;;;;;;;58.95;42.03;;;11.60;99.90;;;;;;5023692;28;20124;-61
2023/04/23 07:40:20;;;;;;;57.55;39.00;;;11.60;99.90;;;;;;5021625;28;20068;-61
2023/04/23 07:42:46;;;;;;;55.25;37.38;;;11.70;99.90;;;;;;5038528;28;20076;-63
2023/04/23 07:45:11;;;;;;;60.58;38.92;;;11.70;99.90;;;;;;5027138;28;20069;-63
2023/04/23 07:47:37;;;;;;;61.53;40.67;;;11.80;99.90;;;;;;4993932;28;20374;-64
2023/04/23 07:50:03;;;;;;;54.33;38.15;;;11.80;99.90;;;;;;5019423;28;20060;-62
2023/04/23 07:52:29;;;;;;;51.60;35.95;;;11.80;99.90;;;;;;5012066;28;20060;-63
2023/04/23 07:54:55;;;;;;;52.53;37.20;;;12.00;99.90;;;;;;5007499;28;20078;-63
2023/04/23 07:57:21;;;;;;;50.67;36.95;;;12.10;99.90;;;;;;5004940;28;20382;-63
2023/04/23 07:59:46;;;;;;;49.58;35.03;;;12.20;99.90;;;;;;5025185;28;20045;-62
2023/04/23 08:02:12;;;;;;;49.35;34.78;;;12.40;99.90;;;;;;5007409;28;20045;-64
2023/04/23 08:04:38;;;;;;;45.05;32.28;;;12.50;99.90;;;;;;4997367;28;20131;-62
2023/04/23 08:07:04;;;;;;;45.35;32.97;;;12.70;99.90;;;;;;5017707;28;20038;-61
2023/04/23 08:09:30;;;;;;;46.17;32.17;;;12.80;99.90;;;;;;5019533;28;20072;-62
2023/04/23 08:11:56;;;;;;;38.65;28.38;;;13.00;99.90;;;;;;5022886;28;20530;-61
2023/04/23 08:14:22;;;;;;;38.95;29.13;;;13.10;99.90;;;;;;5023565;28;20492;-62
2023/04/23 08:16:58;;;;;;;37.33;27.60;;;12.80;99.90;;;;;;5022708;28;20056;-63
2023/04/23 08:19:25;;;;;;;43.45;30.70;;;13.30;99.90;;;;;;5020986;28;20096;-64
2023/04/23 08:21:51;;;;;;;36.70;28.38;;;13.40;99.90;;;;;;5019094;28;20437;-64
2023/04/23 08:24:17;;;;;;;35.83;28.00;;;13.50;99.90;;;;;;5025883;28;20079;-61
2023/04/23 08:26:42;;;;;;;33.38;26.92;;;13.60;99.90;;;;;;5022651;28;20057;-62
2023/04/23 08:29:08;;;;;;;32.97;25.50;;;13.60;99.90;;;;;;5018782;28;20448;-63
2023/04/23 08:31:36;;;;;;;37.13;27.85;;;13.60;99.90;;;;;;5004703;28;20132;-64
2023/04/23 08:34:01;;;;;;;36.95;27.75;;;13.70;99.90;;;;;;5009432;28;20041;-62
2023/04/23 08:36:28;;;;;;;38.35;28.27;;;13.80;99.90;;;;;;5023312;28;20088;-63
2023/04/23 08:38:54;;;;;;;34.13;25.08;;;13.90;99.90;;;;;;5023873;28;20084;-62
2023/04/23 08:41:23;;;;;;;34.60;25.50;;;14.00;99.90;;;;;;5034264;28;20037;-62
2023/04/23 08:44:11;;;;;;;35.33;26.27;;;14.10;99.90;;;;;;5023386;28;20061;-64
2023/04/23 08:46:42;;;;;;;31.02;22.45;;;14.20;99.90;;;;;;5035545;28;20096;-62
2023/04/23 08:49:18;;;;;;;29.77;24.42;;;14.30;99.90;;;;;;5019850;22;20041;-63
2023/04/23 08:51:49;;;;;;;29.05;22.00;;;14.20;99.90;;;;;;4988367;28;20040;-64
2023/04/23 08:54:25;;;;;;;28.60;22.02;;;14.20;99.90;;;;;;5012793;28;20065;-62
2023/04/23 08:56:50;;;;;;;26.35;19.77;;;14.20;99.90;;;;;;5005596;28;20548;-62
2023/04/23 08:59:18;;;;;;;24.83;19.83;;;14.30;99.90;;;;;;5011688;28;20047;-62
2023/04/23 09:01:45;;;;;;;27.65;19.77;;;14.30;99.90;;;;;;5009950;28;20482;-63
2023/04/23 09:04:15;;;;;;;28.02;19.33;;;14.40;99.90;;;;;;5009136;28;20138;-64
2023/04/23 09:06:42;;;;;;;27.40;19.08;;;14.40;99.90;;;;;;5008157;28;20438;-62
2023/04/23 09:09:08;;;;;;;24.10;17.88;;;14.40;99.90;;;;;;4998877;28;20038;-61
2023/04/23 09:11:36;;;;;;;20.58;16.98;;;14.40;99.90;;;;;;4974720;28;20093;-62
2023/04/23 09:14:03;;;;;;;23.35;17.42;;;14.40;99.90;;;;;;5014942;28;20693;-62
2023/04/23 09:16:30;;;;;;;22.13;15.63;;;14.40;99.90;;;;;;5016636;28;20062;-64
2023/04/23 09:18:57;;;;;;;22.65;15.35;;;14.50;99.90;;;;;;4987310;28;20124;-64
2023/04/23 09:21:23;;;;;;;21.83;15.05;;;14.50;99.90;;;;;;5012641;28;20062;-62
2023/04/23 09:23:52;;;;;;;19.17;13.93;;;14.60;99.90;;;;;;4996001;28;20080;-62
2023/04/23 09:26:22;;;;;;;15.85;13.07;;;14.60;99.90;;;;;;5018982;28;20109;-62
2023/04/23 09:28:52;;;;;;;15.15;12.18;;;14.80;99.90;;;;;;5016247;28;20497;-62
2023/04/23 09:31:22;;;;;;;18.42;13.52;;;14.80;99.90;;;;;;4998037;28;20049;-64
2023/04/23 09:33:52;;;;;;;20.25;12.15;;;14.80;99.90;;;;;;4988831;28;20445;-62
2023/04/23 09:36:22;;;;;;;17.10;11.68;;;14.80;99.90;;;;;;5029327;28;20088;-62
2023/04/23 09:38:49;;;;;;;15.18;11.48;;;14.90;99.90;;;;;;4999741;28;20413;-62
2023/04/23 09:41:22;;;;;;;21.75;12.20;;;14.90;99.90;;;;;;4990267;28;20738;-64
2023/04/23 09:43:48;;;;;;;20.98;12.43;;;15.00;99.90;;;;;;4987767;28;20039;-64
2023/04/23 09:46:13;;;;;;;17.05;11.27;;;15.00;99.90;;;;;;5005613;28;20034;-62
2023/04/23 09:48:42;;;;;;;18.95;12.50;;;15.10;99.90;;;;;;4991143;28;20054;-62
2023/04/23 09:51:08;;;;;;;15.45;9.57;;;15.00;99.90;;;;;;5000499;28;20590;-62
2023/04/23 09:53:44;;;;;;;21.75;9.95;;;15.00;99.90;;;;;;4980707;28;20039;-62
2023/04/23 09:56:10;;;;;;;14.10;8.60;;;14.90;99.90;;;;;;4995134;28;20042;-62
2023/04/23 09:58:37;;;;;;;15.85;8.38;;;14.80;99.90;;;;;;4996518;28;20057;-62
2023/04/23 10:01:09;;;;;;;15.07;8.77;;;14.80;99.90;;;;;;5019050;28;20050;-62
2023/04/23 10:03:34;;;;;;;13.40;6.90;;;15.10;99.90;;;;;;5021509;28;20038;-62
2023/04/23 10:06:00;;;;;;;13.65;6.57;;;15.20;99.90;;;;;;5025285;28;20709;-63
2023/04/23 10:08:26;;;;;;;12.68;6.28;;;15.50;99.90;;;;;;4998266;28;20039;-64
2023/04/23 10:10:52;;;;;;;10.23;6.28;;;15.70;99.90;;;;;;5015550;28;20173;-64
2023/04/23 10:13:26;;;;;;;12.10;6.45;;;16.00;99.90;;;;;;5088207;27;20432;-63
2023/04/23 10:15:52;;;;;;;11.73;6.28;;;16.30;99.90;;;;;;5055590;28;20056;-64
2023/04/23 10:18:19;;;;;;;11.48;5.72;;;16.40;99.90;;;;;;5076085;28;20094;-63
2023/04/23 10:20:46;;;;;;;11.55;6.18;;;16.60;99.90;;;;;;5061028;28;20148;-64
2023/04/23 10:23:12;;;;;;;10.75;5.93;;;16.60;99.90;;;;;;5064555;28;20128;-64
2023/04/23 10:25:41;;;;;;;9.30;5.47;;;16.50;99.90;;;;;;5067635;28;20407;-64
2023/04/23 10:28:10;;;;;;;12.82;6.05;;;16.40;99.90;;;;;;5068887;28;20051;-64
2023/04/23 10:30:36;;;;;;;9.07;5.47;;;16.50;99.90;;;;;;5063105;28;20040;-64
2023/04/23 10:33:03;;;;;;;9.25;6.03;;;16.60;99.90;;;;;;5060986;28;20102;-63
2023/04/23 10:35:29;;;;;;;9.00;5.30;;;16.80;99.90;;;;;;5045182;28;20500;-64
2023/04/23 10:37:55;;;;;;;7.43;4.65;;;16.90;99.90;;;;;;5060159;28;20059;-61
2023/04/23 10:40:28;;;;;;;9.40;4.28;;;16.90;99.90;;;;;;5046343;28;20076;-62
2023/04/23 10:42:54;;;;;;;7.93;3.60;;;16.90;99.90;;;;;;5054941;28;20572;-62
2023/04/23 10:45:20;;;;;;;9.13;3.78;;;17.00;99.90;;;;;;5056970;28;20075;-62
2023/04/23 10:47:47;;;;;;;10.80;4.25;;;16.90;99.90;;;;;;5084271;28;20037;-64
2023/04/23 10:50:21;;;;;;;8.93;4.55;;;17.10;99.90;;;;;;5052628;28;20511;-63
2023/04/23 10:52:52;;;;;;;8.90;4.43;;;17.00;99.90;;;;;;5047175;28;20040;-62
2023/04/23 10:55:19;;;;;;;8.25;4.00;;;16.90;99.90;;;;;;5042959;28;20040;-63
2023/04/23 10:57:58;;;;;;;6.50;3.30;;;16.90;99.90;;;;;;5041048;28;20044;-62
2023/04/23 11:00:25;;;;;;;8.07;4.22;;;17.00;99.90;;;;;;5041042;28;20040;-63
2023/04/23 11:02:53;;;;;;;6.72;4.00;;;17.00;99.90;;;;;;5051387;28;20053;-63
2023/04/23 11:05:22;;;;;;;7.45;3.85;;;17.10;99.90;;;;;;5058201;28;20037;-62
2023/04/23 11:08:05;;;;;;;12.43;3.75;;;17.10;99.90;;;;;;5060122;28;20055;-63
2023/04/23 11:10:32;;;;;;;8.93;3.38;;;17.10;99.90;;;;;;5055962;28;20036;-62
2023/04/23 11:13:22;;;;;;;6.47;3.00;;;17.00;99.90;;;;;;5063336;28;20491;-62
2023/04/23 11:15:48;;;;;;;6.85;3.55;;;16.80;99.90;;;;;;5095069;28;20043;-62
2023/04/23 11:18:14;;;;;;;6.97;3.63;;;16.90;99.90;;;;;;5060752;28;20048;-64
2023/04/23 11:20:39;;;;;;;6.35;3.13;;;17.10;99.90;;;;;;5066719;28;20067;-62
2023/04/23 11:23:06;;;;;;;5.22;2.92;;;17.20;99.90;;;;;;5052021;28;20076;-62
2023/04/23 11:25:32;;;;;;;7.32;3.72;;;17.30;99.90;;;;;;5039373;28;20067;-63
2023/04/23 11:27:58;;;;;;;8.43;4.20;;;17.40;99.90;;;;;;5034082;28;20751;-62
2023/04/23 11:30:26;;;;;;;7.25;4.50;;;17.50;99.90;;;;;;5044294;28;20068;-62
2023/04/23 11:32:55;;;;;;;7.90;4.50;;;17.60;99.90;;;;;;5036420;28;20037;-64
2023/04/23 11:35:36;;;;;;;9.10;4.70;;;17.80;99.90;;;;;;5045042;28;20046;-62
2023/04/23 11:38:07;;;;;;;7.78;4.15;;;18.00;99.90;;;;;;5046051;28;20738;-62
2023/04/23 11:40:33;;;;;;;10.50;4.20;;;18.30;99.90;;;;;;5049623;28;20041;-62
2023/04/23 11:42:59;;;;;;;8.15;4.10;;;18.30;99.90;;;;;;5042424;28;20045;-64
2023/04/23 11:45:27;;;;;;;7.50;4.10;;;18.10;99.90;;;;;;5047622;28;20100;-62
2023/04/23 11:47:59;;;;;;;6.28;2.95;;;18.20;99.90;;;;;;5027882;28;20067;-62
2023/04/23 11:50:27;;;;;;;7.30;3.33;;;18.30;99.90;;;;;;5048721;28;21539;-62
2023/04/23 11:52:53;;;;;;;6.70;3.30;;;18.30;99.90;;;;;;5049839;28;20041;-61
2023/04/23 11:55:19;;;;;;;6.50;3.35;;;18.20;99.90;;;;;;5040999;28;20048;-64
2023/04/23 11:57:50;;;;;;;8.98;3.25;;;18.10;99.90;;;;;;5050121;28;20463;-62
2023/04/23 12:00:24;;;;;;;5.10;2.50;;;18.20;99.90;;;;;;5049757;28;20099;-62
2023/04/23 12:02:54;;;;;;;6.45;2.85;;;18.30;99.90;;;;;;5063568;28;20037;-61
2023/04/23 12:05:47;;;;;;;7.72;3.33;;;18.30;99.90;;;;;;5061384;28;20049;-62
2023/04/23 12:08:17;;;;;;;6.00;1.80;;;18.50;99.90;;;;;;5043401;28;20740;-62
2023/04/23 12:10:53;;;;;;;5.47;1.90;;;18.70;99.20;;;;;;5048707;28;20075;-63
2023/04/23 12:13:26;;;;;;;6.68;2.38;;;18.50;98.90;;;;;;5041608;28;20052;-64
2023/04/23 12:15:59;;;;;;;6.30;1.80;;;18.70;99.50;;;;;;5040427;28;20045;-62
2023/04/23 12:18:37;;;;;;;4.47;2.20;;;18.70;98.60;;;;;;5021423;28;20041;-63
2023/04/23 12:21:13;;;;;;;4.20;1.88;;;18.60;99.20;;;;;;5042805;28;20051;-63
2023/04/23 12:23:40;;;;;;;6.28;2.28;;;18.50;98.60;;;;;;5070970;28;20048;-62
2023/04/23 12:26:14;;;;;;;7.50;2.67;;;18.60;99.00;;;;;;5023444;28;20045;-63
2023/04/23 12:28:48;;;;;;;;;;;18.60;99.00;;;;;;5022018;28;20044;-62
2023/04/23 12:31:32;;;;;;;5.63;1.75;;;18.70;97.60;;;;;;5046019;28;20123;-63
2023/04/23 12:34:08;;;;;;;;;;;18.80;98.00;;;;;;5062573;28;20096;-62